createdAt,value
2018-06-16T00:00:05.349Z,19.37
2018-06-16T00:02:36.004Z,19.33
2018-06-16T00:05:06.842Z,19.26
2018-06-16T00:07:37.509Z,19.20
2018-06-16T00:10:08.243Z,19.19
2018-06-16T00:12:38.890Z,19.18
2018-06-16T00:15:09.532Z,19.20
2018-06-16T00:17:40.191Z,19.19
2018-06-16T00:20:10.866Z,19.21
2018-06-16T00:22:41.479Z,19.23
2018-06-16T00:25:12.236Z,19.22
2018-06-16T00:27:42.847Z,19.21
2018-06-16T00:30:13.435Z,19.21
2018-06-16T00:32:44.089Z,19.20
2018-06-16T00:35:14.747Z,19.18
2018-06-16T00:37:45.380Z,19.18
2018-06-16T00:40:16.011Z,19.15
2018-06-16T00:42:46.657Z,19.11
2018-06-16T00:45:17.292Z,19.10
2018-06-16T00:47:47.903Z,19.01
2018-06-16T00:50:18.554Z,18.93
2018-06-16T00:52:49.239Z,18.86
2018-06-16T00:55:19.882Z,18.77
2018-06-16T00:57:51.327Z,18.73
2018-06-16T01:00:22.050Z,18.65
2018-06-16T01:02:52.900Z,18.59
2018-06-16T01:05:23.213Z,18.55
2018-06-16T01:07:53.730Z,18.54
2018-06-16T01:10:24.381Z,18.54
2018-06-16T01:12:55.009Z,18.46
2018-06-16T01:15:25.666Z,18.45
2018-06-16T01:17:56.311Z,18.42
2018-06-16T01:20:26.939Z,18.32
2018-06-16T01:22:57.590Z,18.28
2018-06-16T01:25:28.286Z,18.26
2018-06-16T01:27:58.907Z,18.29
2018-06-16T01:30:29.532Z,18.27
2018-06-16T01:33:00.175Z,18.21
2018-06-16T01:35:30.841Z,18.18
2018-06-16T01:38:01.446Z,18.21
2018-06-16T01:40:32.086Z,18.16
2018-06-16T01:43:02.724Z,18.18
2018-06-16T01:45:33.352Z,18.12
2018-06-16T01:48:03.999Z,18.02
2018-06-16T01:50:34.647Z,17.97
2018-06-16T01:53:05.289Z,17.96
2018-06-16T01:55:35.903Z,17.99
2018-06-16T01:58:06.559Z,17.98
2018-06-16T02:00:37.174Z,18.01
2018-06-16T02:03:07.859Z,17.94
2018-06-16T02:05:38.512Z,17.91
2018-06-16T02:08:09.223Z,17.94
2018-06-16T02:10:39.850Z,18.00
2018-06-16T02:13:10.493Z,17.97
2018-06-16T02:15:41.293Z,17.96
2018-06-16T02:18:11.950Z,17.90
2018-06-16T02:20:42.646Z,17.88
2018-06-16T02:23:13.318Z,17.86
2018-06-16T02:25:43.913Z,17.83
2018-06-16T02:28:14.551Z,17.77
2018-06-16T02:30:45.162Z,17.73
2018-06-16T02:33:15.783Z,17.76
2018-06-16T02:35:46.416Z,17.72
2018-06-16T02:38:17.068Z,17.69
2018-06-16T02:40:47.703Z,17.64
2018-06-16T02:43:18.371Z,17.63
2018-06-16T02:45:49.001Z,17.64
2018-06-16T02:48:19.640Z,17.60
2018-06-16T02:50:50.234Z,17.57
2018-06-16T02:53:20.909Z,17.56
2018-06-16T02:55:51.574Z,17.56
2018-06-16T02:58:22.208Z,17.57
2018-06-16T03:00:52.837Z,17.52
2018-06-16T03:03:23.570Z,17.46
2018-06-16T03:05:54.184Z,17.50
2018-06-16T03:08:24.836Z,17.56
2018-06-16T03:10:55.446Z,17.61
2018-06-16T03:13:26.088Z,17.56
2018-06-16T03:15:56.691Z,17.52
2018-06-16T03:18:27.383Z,17.44
2018-06-16T03:20:57.972Z,17.40
2018-06-16T03:23:28.664Z,17.38
2018-06-16T03:25:59.282Z,17.38
2018-06-16T03:28:29.880Z,17.42
2018-06-16T03:31:00.512Z,17.38
2018-06-16T03:33:31.227Z,17.38
2018-06-16T03:36:01.858Z,17.35
2018-06-16T03:38:32.481Z,17.41
2018-06-16T03:41:03.052Z,17.42
2018-06-16T03:43:33.684Z,17.42
2018-06-16T03:46:04.304Z,17.39
2018-06-16T03:48:34.919Z,17.37
2018-06-16T03:51:05.563Z,17.40
2018-06-16T03:53:36.181Z,17.43
2018-06-16T03:56:06.826Z,17.42
2018-06-16T03:58:37.471Z,17.46
2018-06-16T04:01:08.091Z,17.53
2018-06-16T04:03:38.714Z,17.55
2018-06-16T04:06:09.348Z,17.64
2018-06-16T04:08:39.988Z,17.65
2018-06-16T04:11:10.627Z,17.54
2018-06-16T04:13:41.240Z,17.47
2018-06-16T04:16:11.905Z,17.40
2018-06-16T04:18:42.566Z,17.41
2018-06-16T04:21:13.170Z,17.45
2018-06-16T04:23:43.758Z,17.46
2018-06-16T04:26:14.479Z,17.53
2018-06-16T04:28:45.049Z,17.54
2018-06-16T04:31:15.659Z,17.57
2018-06-16T04:33:46.279Z,17.57
2018-06-16T04:36:16.978Z,17.59
2018-06-16T04:38:47.682Z,17.64
2018-06-16T04:41:18.363Z,17.74
2018-06-16T04:43:49.059Z,17.75
2018-06-16T04:46:19.677Z,17.81
2018-06-16T04:48:50.280Z,17.90
2018-06-16T04:51:20.881Z,17.99
2018-06-16T04:53:51.587Z,18.04
2018-06-16T04:56:22.233Z,18.12
2018-06-16T04:58:53.214Z,18.28
2018-06-16T05:01:23.871Z,18.31
2018-06-16T05:03:54.555Z,18.39
2018-06-16T05:06:25.234Z,18.47
2018-06-16T05:08:55.886Z,18.53
2018-06-16T05:11:26.543Z,18.51
2018-06-16T05:13:57.182Z,18.68
2018-06-16T05:16:27.804Z,18.73
2018-06-16T05:18:58.425Z,18.80
2018-06-16T05:21:29.034Z,18.86
2018-06-16T05:23:59.689Z,18.91
2018-06-16T05:26:30.320Z,18.89
2018-06-16T05:29:01.007Z,18.86
2018-06-16T05:31:31.600Z,18.96
2018-06-16T05:34:02.210Z,19.02
2018-06-16T05:36:32.872Z,19.05
2018-06-16T05:39:03.647Z,19.15
2018-06-16T05:41:34.292Z,19.23
2018-06-16T05:44:04.960Z,19.22
2018-06-16T05:46:35.588Z,19.43
2018-06-16T05:49:06.406Z,19.50
2018-06-16T05:51:37.104Z,19.61
2018-06-16T05:54:08.613Z,19.72
2018-06-16T05:56:39.262Z,19.75
2018-06-16T05:59:09.957Z,19.92
2018-06-16T06:01:40.853Z,19.88
2018-06-16T06:04:11.577Z,19.90
2018-06-16T06:06:42.224Z,19.97
2018-06-16T06:09:12.839Z,20.11
2018-06-16T06:11:43.511Z,20.15
2018-06-16T06:14:14.155Z,20.10
2018-06-16T06:16:44.804Z,20.15
2018-06-16T06:19:15.396Z,20.05
2018-06-16T06:21:46.102Z,20.08
2018-06-16T06:24:16.720Z,20.20
2018-06-16T06:26:47.371Z,20.25
2018-06-16T06:29:18.005Z,20.25
2018-06-16T06:31:48.652Z,20.21
2018-06-16T06:34:19.308Z,20.21
2018-06-16T06:36:49.956Z,20.27
2018-06-16T06:39:20.627Z,20.27
2018-06-16T06:41:51.264Z,20.36
2018-06-16T06:44:21.991Z,20.54
2018-06-16T06:46:52.625Z,20.69
2018-06-16T06:49:23.212Z,20.70
2018-06-16T06:51:53.867Z,20.57
2018-06-16T06:54:24.482Z,20.63
2018-06-16T06:56:55.103Z,20.60
2018-06-16T06:59:25.744Z,20.61
2018-06-16T07:01:56.456Z,20.70
2018-06-16T07:04:27.107Z,20.62
2018-06-16T07:06:57.780Z,20.75
2018-06-16T07:09:28.519Z,20.85
2018-06-16T07:11:59.132Z,20.90
2018-06-16T07:14:30.444Z,21.12
2018-06-16T07:17:01.033Z,21.03
2018-06-16T07:19:31.668Z,21.14
2018-06-16T07:22:02.266Z,21.25
2018-06-16T07:24:32.895Z,21.43
2018-06-16T07:27:03.507Z,21.57
2018-06-16T07:29:34.179Z,21.54
2018-06-16T07:32:04.891Z,21.56
2018-06-16T07:34:35.555Z,21.61
2018-06-16T07:37:06.233Z,21.78
2018-06-16T07:39:36.847Z,21.86
2018-06-16T07:42:07.539Z,21.98
2018-06-16T07:44:38.183Z,21.97
2018-06-16T07:47:08.972Z,22.06
2018-06-16T07:49:39.639Z,22.05
2018-06-16T07:52:10.406Z,22.29
2018-06-16T07:54:42.540Z,22.49
2018-06-16T07:57:13.602Z,22.53
2018-06-16T07:59:44.711Z,22.58
2018-06-16T08:02:15.715Z,22.82
2018-06-16T08:04:46.847Z,23.02
2018-06-16T08:07:18.702Z,23.10
2018-06-16T08:09:49.585Z,23.28
2018-06-16T08:12:20.282Z,23.22
2018-06-16T08:14:50.942Z,23.07
2018-06-16T08:17:36.202Z,22.94
2018-06-16T08:20:06.882Z,22.84
2018-06-16T08:22:37.637Z,22.69
2018-06-16T08:25:08.260Z,22.83
2018-06-16T08:27:38.956Z,22.93
2018-06-16T08:30:09.361Z,23.23
2018-06-16T08:32:39.916Z,23.57
2018-06-16T08:35:10.664Z,23.88
2018-06-16T08:37:41.374Z,24.03
2018-06-16T08:40:12.087Z,24.19
2018-06-16T08:42:42.751Z,24.46
2018-06-16T08:45:44.647Z,24.51
2018-06-16T08:48:15.301Z,24.47
2018-06-16T08:50:45.991Z,24.29
2018-06-16T08:53:16.679Z,24.36
2018-06-16T08:55:47.343Z,24.40
2018-06-16T08:58:18.012Z,24.45
2018-06-16T09:00:54.454Z,24.31
2018-06-16T09:03:25.239Z,24.18
2018-06-16T09:05:55.871Z,23.91
2018-06-16T09:08:28.255Z,23.89
2018-06-16T09:10:58.938Z,23.90
2018-06-16T09:13:29.595Z,24.15
2018-06-16T09:16:00.256Z,24.46
2018-06-16T09:18:30.977Z,24.55
2018-06-16T09:21:08.307Z,24.43
2018-06-16T09:23:53.598Z,24.49
2018-06-16T09:26:24.288Z,24.58
2018-06-16T09:28:54.992Z,24.95
2018-06-16T09:31:25.681Z,25.24
2018-06-16T09:33:56.347Z,25.59
2018-06-16T09:36:27.086Z,25.78
2018-06-16T09:38:57.711Z,25.54
2018-06-16T09:41:28.434Z,25.57
2018-06-16T09:43:59.087Z,25.83
2018-06-16T09:46:29.791Z,26.09
2018-06-16T09:49:00.433Z,26.41
2018-06-16T09:51:31.152Z,26.56
2018-06-16T09:54:01.860Z,26.05
2018-06-16T09:56:32.564Z,25.64
2018-06-16T09:59:03.279Z,25.41
2018-06-16T10:01:33.962Z,25.33
2018-06-16T10:04:04.672Z,25.14
2018-06-16T10:06:35.328Z,25.40
2018-06-16T10:09:08.432Z,25.54
2018-06-16T10:11:39.127Z,25.54
2018-06-16T10:14:09.814Z,25.35
2018-06-16T10:16:40.489Z,25.37
2018-06-16T10:19:11.152Z,25.88
2018-06-16T10:21:41.799Z,26.23
2018-06-16T10:24:12.498Z,26.29
2018-06-16T10:26:43.215Z,26.27
2018-06-16T10:29:13.853Z,25.93
2018-06-16T10:31:44.577Z,25.46
2018-06-16T10:34:15.249Z,25.62
2018-06-16T10:36:45.959Z,25.74
2018-06-16T10:39:16.604Z,26.00
2018-06-16T10:41:47.116Z,26.08
2018-06-16T10:44:17.655Z,26.22
2018-06-16T10:46:48.399Z,26.31
2018-06-16T10:49:19.120Z,26.34
2018-06-16T10:51:49.833Z,26.33
2018-06-16T10:54:20.536Z,26.41
2018-06-16T10:56:51.279Z,26.56
2018-06-16T10:59:21.957Z,26.76
2018-06-16T11:01:52.651Z,26.44
2018-06-16T11:04:23.318Z,26.43
2018-06-16T11:06:54.069Z,26.49
2018-06-16T11:09:24.766Z,26.54
2018-06-16T11:11:55.605Z,26.89
2018-06-16T11:14:26.302Z,26.95
2018-06-16T11:16:56.964Z,26.66
2018-06-16T11:19:27.737Z,26.77
2018-06-16T11:21:58.404Z,26.88
2018-06-16T11:24:29.110Z,26.90
2018-06-16T11:26:59.863Z,26.61
2018-06-16T11:29:30.500Z,26.36
2018-06-16T11:32:01.213Z,26.44
2018-06-16T11:34:31.983Z,26.14
2018-06-16T11:37:02.722Z,26.07
2018-06-16T11:39:33.388Z,25.79
2018-06-16T11:42:04.113Z,25.73
2018-06-16T11:44:34.823Z,25.79
2018-06-16T11:47:05.597Z,25.77
2018-06-16T11:49:36.300Z,25.88
2018-06-16T11:52:06.954Z,26.25
2018-06-16T11:54:37.634Z,26.33
2018-06-16T11:57:08.396Z,26.22
2018-06-16T11:59:39.111Z,26.28
2018-06-16T12:02:09.889Z,26.55
2018-06-16T12:04:40.557Z,26.71
2018-06-16T12:07:11.224Z,26.59
2018-06-16T12:09:41.876Z,26.33
2018-06-16T12:12:13.130Z,26.18
2018-06-16T12:14:43.804Z,26.21
2018-06-16T12:17:14.483Z,26.23
2018-06-16T12:19:45.171Z,26.19
2018-06-16T12:22:15.844Z,26.50
2018-06-16T12:24:46.487Z,26.76
2018-06-16T12:27:17.160Z,26.70
2018-06-16T12:29:47.867Z,26.45
2018-06-16T12:32:18.512Z,26.28
2018-06-16T12:34:49.108Z,26.49
2018-06-16T12:37:19.862Z,26.27
2018-06-16T12:39:50.533Z,25.86
2018-06-16T12:42:21.264Z,25.62
2018-06-16T12:44:51.928Z,25.59
2018-06-16T12:47:22.602Z,25.57
2018-06-16T12:49:53.265Z,25.59
2018-06-16T12:52:24.450Z,25.53
2018-06-16T12:54:55.485Z,25.66
2018-06-16T12:57:26.097Z,25.80
2018-06-16T12:59:56.780Z,25.86
2018-06-16T13:02:27.450Z,25.94
2018-06-16T13:04:58.102Z,25.86
2018-06-16T13:07:28.743Z,25.81
2018-06-16T13:09:59.430Z,25.60
2018-06-16T13:12:30.070Z,25.49
2018-06-16T13:15:00.747Z,25.47
2018-06-16T13:17:31.376Z,25.40
2018-06-16T13:20:02.030Z,25.23
2018-06-16T13:22:32.703Z,25.18
2018-06-16T13:25:03.427Z,25.02
2018-06-16T13:27:34.155Z,24.95
2018-06-16T13:30:04.998Z,24.94
2018-06-16T13:32:35.738Z,24.85
2018-06-16T13:35:06.724Z,24.83
2018-06-16T13:37:37.423Z,24.78
2018-06-16T13:40:08.101Z,24.81
2018-06-16T13:42:38.843Z,24.88
2018-06-16T13:45:09.541Z,25.21
2018-06-16T13:47:40.923Z,25.59
2018-06-16T13:50:14.258Z,26.00
2018-06-16T13:52:50.787Z,26.20
2018-06-16T13:55:37.436Z,26.33
2018-06-16T13:58:08.234Z,26.54
2018-06-16T14:00:38.979Z,26.61
2018-06-16T14:03:09.662Z,26.59
2018-06-16T14:05:40.359Z,26.48
2018-06-16T14:08:11.090Z,26.35
2018-06-16T14:10:41.412Z,26.29
2018-06-16T14:13:11.990Z,26.28
2018-06-16T14:15:42.854Z,26.22
2018-06-16T14:18:13.515Z,26.33
2018-06-16T14:20:44.157Z,26.47
2018-06-16T14:23:15.017Z,26.45
2018-06-16T14:25:45.766Z,26.47
2018-06-16T14:28:16.677Z,26.53
2018-06-16T14:30:47.376Z,26.85
2018-06-16T14:33:18.071Z,27.23
2018-06-16T14:35:48.796Z,27.54
2018-06-16T14:38:19.491Z,27.95
2018-06-16T14:40:50.151Z,27.84
2018-06-16T14:43:20.806Z,27.98
2018-06-16T14:45:51.486Z,28.25
2018-06-16T14:48:22.146Z,28.19
2018-06-16T14:50:52.864Z,27.91
2018-06-16T14:53:23.523Z,27.37
2018-06-16T14:55:54.163Z,27.18
2018-06-16T14:58:26.189Z,26.94
2018-06-16T15:00:57.923Z,27.04
2018-06-16T15:03:28.580Z,26.80
2018-06-16T15:05:59.254Z,26.67
2018-06-16T15:08:29.948Z,26.66
2018-06-16T15:11:00.620Z,26.76
2018-06-16T15:13:31.308Z,26.69
2018-06-16T15:16:01.999Z,26.42
2018-06-16T15:18:32.671Z,26.42
2018-06-16T15:21:03.445Z,26.28
2018-06-16T15:23:34.836Z,26.54
2018-06-16T15:26:05.562Z,26.89
2018-06-16T15:28:36.215Z,26.82
2018-06-16T15:31:37.832Z,26.77
2018-06-16T15:34:08.687Z,26.70
2018-06-16T15:36:39.433Z,26.49
2018-06-16T15:39:11.212Z,26.18
2018-06-16T15:41:41.904Z,26.01
2018-06-16T15:44:12.604Z,26.06
2018-06-16T15:46:43.374Z,26.15
2018-06-16T15:49:14.146Z,25.99
2018-06-16T15:51:44.836Z,25.83
2018-06-16T15:54:15.565Z,25.74
2018-06-16T15:56:46.284Z,25.63
2018-06-16T15:59:17.715Z,25.47
2018-06-16T16:01:48.458Z,25.40
2018-06-16T16:04:19.169Z,25.54
2018-06-16T16:06:49.853Z,25.58
2018-06-16T16:09:20.587Z,25.68
2018-06-16T16:11:51.280Z,25.99
2018-06-16T16:14:21.996Z,26.09
2018-06-16T16:16:52.847Z,25.89
2018-06-16T16:19:23.566Z,25.73
2018-06-16T16:21:54.266Z,25.53
2018-06-16T16:24:24.896Z,25.47
2018-06-16T16:26:55.581Z,25.23
2018-06-16T16:29:26.278Z,25.15
2018-06-16T16:31:57.016Z,25.03
2018-06-16T16:34:27.710Z,24.93
2018-06-16T16:36:58.426Z,24.78
2018-06-16T16:39:29.140Z,24.68
2018-06-16T16:41:59.782Z,24.75
2018-06-16T16:44:30.480Z,24.69
2018-06-16T16:47:01.179Z,24.48
2018-06-16T16:49:31.821Z,24.52
2018-06-16T16:52:02.434Z,24.37
2018-06-16T16:54:33.097Z,24.29
2018-06-16T16:57:03.733Z,24.15
2018-06-16T16:59:34.463Z,23.99
2018-06-16T17:02:05.158Z,23.97
2018-06-16T17:04:35.794Z,23.98
2018-06-16T17:07:06.475Z,23.26
2018-06-16T17:09:37.185Z,22.74
2018-06-16T17:12:07.855Z,22.28
2018-06-16T17:14:38.546Z,21.99
2018-06-16T17:17:09.245Z,21.52
2018-06-16T17:19:39.893Z,21.39
2018-06-16T17:22:10.500Z,21.13
2018-06-16T17:24:41.222Z,21.16
2018-06-16T17:27:11.850Z,21.10
2018-06-16T17:29:42.515Z,20.88
2018-06-16T17:32:13.164Z,20.82
2018-06-16T17:34:43.834Z,20.75
2018-06-16T17:37:14.574Z,20.77
2018-06-16T17:39:45.245Z,20.68
2018-06-16T17:42:15.954Z,20.68
2018-06-16T17:44:46.647Z,20.69
2018-06-16T17:47:17.332Z,20.71
2018-06-16T17:49:48.127Z,20.75
2018-06-16T17:52:18.794Z,20.79
2018-06-16T17:54:49.632Z,20.83
2018-06-16T17:57:20.406Z,20.80
2018-06-16T17:59:51.284Z,20.81
2018-06-16T18:02:22.161Z,20.81
2018-06-16T18:04:52.866Z,20.84
2018-06-16T18:07:23.509Z,20.83
2018-06-16T18:09:54.218Z,20.84
2018-06-16T18:12:24.910Z,20.80
2018-06-16T18:14:56.071Z,20.78
2018-06-16T18:17:26.791Z,20.78
2018-06-16T18:19:57.460Z,20.81
2018-06-16T18:22:28.117Z,20.76
2018-06-16T18:24:58.802Z,20.75
2018-06-16T18:27:29.513Z,20.76
2018-06-16T18:30:00.215Z,20.74
2018-06-16T18:32:30.959Z,20.72
2018-06-16T18:35:01.667Z,20.71
2018-06-16T18:37:32.340Z,20.69
2018-06-16T18:40:02.989Z,20.72
2018-06-16T18:42:34.369Z,20.78
2018-06-16T18:45:05.304Z,20.77
2018-06-16T18:47:35.944Z,20.78
2018-06-16T18:50:06.624Z,20.77
2018-06-16T18:52:37.323Z,20.80
2018-06-16T18:55:08.003Z,20.81
2018-06-16T18:57:38.687Z,20.73
2018-06-16T19:00:09.353Z,20.72
2018-06-16T19:02:40.039Z,20.69
2018-06-16T19:05:10.718Z,20.74
2018-06-16T19:07:41.416Z,20.68
2018-06-16T19:10:12.209Z,20.60
2018-06-16T19:12:42.894Z,20.61
2018-06-16T19:15:13.593Z,20.47
2018-06-16T19:17:44.323Z,20.37
2018-06-16T19:20:15.021Z,20.20
2018-06-16T19:22:45.793Z,20.11
2018-06-16T19:25:16.452Z,19.90
2018-06-16T19:27:47.107Z,19.82
2018-06-16T19:30:17.832Z,19.84
2018-06-16T19:32:48.584Z,19.91
2018-06-16T19:35:19.527Z,19.75
2018-06-16T19:37:50.134Z,19.66
2018-06-16T19:40:20.826Z,19.71
2018-06-16T19:42:51.478Z,19.71
2018-06-16T19:45:22.217Z,19.75
2018-06-16T19:47:52.928Z,19.75
2018-06-16T19:50:23.553Z,19.78
2018-06-16T19:52:54.295Z,19.82
2018-06-16T19:55:24.959Z,19.87
2018-06-16T19:57:55.687Z,19.94
2018-06-16T20:00:26.381Z,19.99
2018-06-16T20:02:57.111Z,20.02
2018-06-16T20:05:27.770Z,20.04
2018-06-16T20:07:58.483Z,20.02
2018-06-16T20:10:29.105Z,20.12
2018-06-16T20:12:59.911Z,20.09
2018-06-16T20:15:30.525Z,20.13
2018-06-16T20:18:01.170Z,20.02
2018-06-16T20:20:34.691Z,19.99
2018-06-16T20:23:05.418Z,19.99
2018-06-16T20:25:36.077Z,19.97
2018-06-16T20:28:06.811Z,19.97
2018-06-16T20:30:37.496Z,19.96
2018-06-16T20:33:08.186Z,19.97
2018-06-16T20:35:38.877Z,19.99
2018-06-16T20:38:09.589Z,19.98
2018-06-16T20:40:40.206Z,19.98
2018-06-16T20:43:10.904Z,19.90
2018-06-16T20:45:41.548Z,19.84
2018-06-16T20:48:12.286Z,19.83
2018-06-16T20:50:43.070Z,19.81
2018-06-16T20:53:13.695Z,19.78
2018-06-16T20:55:44.383Z,19.76
2018-06-16T20:58:15.011Z,19.76
2018-06-16T21:00:45.670Z,19.80
2018-06-16T21:03:16.337Z,19.76
2018-06-16T21:05:46.997Z,19.72
2018-06-16T21:08:17.706Z,19.66
2018-06-16T21:10:48.323Z,19.68
2018-06-16T21:13:18.973Z,19.66
2018-06-16T21:15:49.613Z,19.61
2018-06-16T21:18:20.262Z,19.54
2018-06-16T21:20:50.931Z,19.49
2018-06-16T21:23:22.504Z,19.45
2018-06-16T21:25:53.444Z,19.41
2018-06-16T21:28:24.068Z,19.34
2018-06-16T21:30:54.824Z,19.31
2018-06-16T21:33:25.505Z,19.31
2018-06-16T21:35:56.176Z,19.27
2018-06-16T21:38:26.776Z,19.27
2018-06-16T21:40:58.443Z,19.29
2018-06-16T21:43:29.061Z,19.31
2018-06-16T21:45:59.711Z,19.30
2018-06-16T21:48:30.436Z,19.30
2018-06-16T21:51:01.129Z,19.32
2018-06-16T21:53:31.761Z,19.31
2018-06-16T21:56:02.442Z,19.28
2018-06-16T21:58:33.111Z,19.25
2018-06-16T22:01:03.796Z,19.19
2018-06-16T22:03:34.450Z,19.19
2018-06-16T22:06:05.155Z,19.21
2018-06-16T22:08:35.878Z,19.20
2018-06-16T22:11:06.613Z,19.20
2018-06-16T22:13:37.278Z,19.18
2018-06-16T22:16:07.971Z,19.14
2018-06-16T22:18:38.662Z,19.13
2018-06-16T22:21:09.331Z,19.17
2018-06-16T22:23:40.091Z,19.20
2018-06-16T22:26:10.711Z,19.24
2018-06-16T22:28:41.366Z,19.26
2018-06-16T22:31:12.008Z,19.27
2018-06-16T22:33:42.652Z,19.23
2018-06-16T22:36:13.321Z,19.21
2018-06-16T22:38:44.189Z,19.23
2018-06-16T22:41:14.865Z,19.26
2018-06-16T22:43:45.609Z,19.27
2018-06-16T22:46:16.267Z,19.25
2018-06-16T22:48:46.600Z,19.25
2018-06-16T22:51:17.113Z,19.24
2018-06-16T22:53:47.764Z,19.23
2018-06-16T22:56:18.391Z,19.22
2018-06-16T22:58:49.075Z,19.19
2018-06-16T23:01:19.686Z,19.19
2018-06-16T23:03:50.335Z,19.18
2018-06-16T23:06:20.952Z,19.16
2018-06-16T23:08:51.664Z,19.13
2018-06-16T23:11:22.299Z,19.14
2018-06-16T23:13:52.947Z,19.08
2018-06-16T23:16:23.587Z,19.06
2018-06-16T23:18:54.365Z,19.03
2018-06-16T23:21:25.008Z,19.02
2018-06-16T23:23:55.802Z,19.02
2018-06-16T23:26:26.412Z,18.94
2018-06-16T23:28:57.061Z,18.91
2018-06-16T23:31:27.709Z,18.84
2018-06-16T23:33:58.356Z,18.80
2018-06-16T23:36:28.973Z,18.80
2018-06-16T23:38:59.774Z,18.79
2018-06-16T23:41:30.443Z,18.72
2018-06-16T23:44:01.093Z,18.73
2018-06-16T23:46:31.724Z,18.69
2018-06-16T23:49:02.370Z,18.71
2018-06-16T23:51:33.017Z,18.75
2018-06-16T23:54:03.662Z,18.65
2018-06-16T23:56:34.293Z,18.74
2018-06-16T23:59:04.940Z,18.68
